Time;durP1;ratioP1;P1;durP2;ratioP2;P2;SDS_P1;SDS_P2;PMS_P1;PMS_P2;Temp;Humidity;BMP_temperature;BMP_pressure;BME280_temperature;BME280_humidity;BME280_pressure;Samples;Min_cycle;Max_cycle;Signal;HPM_P1;HPM_P2
2022/10/01 00:00:19;;;;;;;11.13;9.00;;;7.50;99.90;;;;;;4997555;28;20547;-51
2022/10/01 00:02:46;;;;;;;13.57;9.47;;;7.50;99.90;;;;;;4997127;28;20465;-52
2022/10/01 00:05:13;;;;;;;12.40;8.57;;;7.50;89.70;;;;;;4995398;28;20487;-52
2022/10/01 00:07:40;;;;;;;14.43;9.33;;;7.50;20.70;;;;;;4991199;28;20564;-51
2022/10/01 00:10:09;;;;;;;11.90;9.50;;;7.50;87.50;;;;;;4995140;28;21157;-52
2022/10/01 00:12:37;;;;;;;11.73;9.07;;;7.50;96.00;;;;;;4994311;28;20471;-52
2022/10/01 00:15:08;;;;;;;14.13;9.07;;;7.50;99.90;;;;;;4993395;28;20974;-52
2022/10/01 00:17:36;;;;;;;10.50;9.00;;;7.50;99.90;;;;;;4997662;28;20481;-50
2022/10/01 00:20:04;;;;;;;13.13;8.83;;;7.50;99.90;;;;;;4984762;28;20462;-52
2022/10/01 00:22:31;;;;;;;12.43;9.20;;;7.50;99.90;;;;;;4993019;28;20919;-51
2022/10/01 00:24:58;;;;;;;12.90;8.80;;;7.50;99.90;;;;;;4997055;28;20467;-51
2022/10/01 00:27:24;;;;;;;9.27;8.37;;;7.50;99.90;;;;;;4998620;28;20483;-50
2022/10/01 00:29:51;;;;;;;10.63;8.47;;;7.40;99.90;;;;;;4995978;28;21033;-50
2022/10/01 00:32:18;;;;;;;9.87;8.87;;;7.50;99.90;;;;;;4998797;28;20468;-51
2022/10/01 00:34:45;;;;;;;12.80;8.53;;;7.50;99.90;;;;;;4992403;28;20903;-51
2022/10/01 00:37:12;;;;;;;8.67;7.80;;;7.50;99.90;;;;;;4989992;28;21001;-50
2022/10/01 00:39:39;;;;;;;14.20;8.50;;;7.50;99.90;;;;;;4993406;28;20552;-50
2022/10/01 00:42:16;;;;;;;10.40;8.67;;;7.50;99.90;;;;;;4992480;28;20554;-50
2022/10/01 00:44:44;;;;;;;12.53;7.43;;;7.60;99.90;;;;;;4982877;28;20496;-50
2022/10/01 00:47:20;;;;;;;11.43;8.10;;;7.60;99.90;;;;;;4979738;28;21105;-50
2022/10/01 00:49:50;;;;;;;11.33;7.97;;;7.60;99.90;;;;;;4990941;28;20595;-51
2022/10/01 00:52:21;;;;;;;9.10;8.03;;;7.60;99.90;;;;;;4993619;28;20555;-51
2022/10/01 00:54:52;;;;;;;13.23;8.97;;;7.60;99.90;;;;;;4990641;28;21029;-50
2022/10/01 00:57:23;;;;;;;12.20;8.27;;;7.70;99.90;;;;;;4989687;28;20563;-50
2022/10/01 00:59:51;;;;;;;13.17;8.00;;;7.80;99.90;;;;;;4986595;28;20458;-50
2022/10/01 01:02:18;;;;;;;12.87;9.53;;;7.90;99.90;;;;;;4990521;28;20551;-52
2022/10/01 01:04:44;;;;;;;12.43;8.60;;;7.80;99.90;;;;;;4990777;28;21082;-50
2022/10/01 01:07:12;;;;;;;11.17;8.30;;;8.00;99.90;;;;;;4992068;28;20579;-51
2022/10/01 01:09:43;;;;;;;10.30;7.90;;;8.00;99.90;;;;;;4997809;28;20591;-51
2022/10/01 01:12:18;;;;;;;10.40;7.27;;;8.00;99.90;;;;;;4993495;28;20560;-50
2022/10/01 01:14:54;;;;;;;12.27;7.87;;;8.10;95.40;;;;;;4990176;28;20595;-51
2022/10/01 01:17:27;;;;;;;12.80;8.70;;;8.20;21.80;;;;;;4992496;28;20477;-51
2022/10/01 01:20:10;;;;;;;12.33;10.50;;;8.20;30.60;;;;;;4997247;28;20543;-50
2022/10/01 01:22:45;;;;;;;13.60;9.40;;;8.20;33.20;;;;;;4989019;28;20489;-51
2022/10/01 01:25:18;;;;;;;14.83;10.60;;;8.20;39.80;;;;;;4986811;28;20495;-50
2022/10/01 01:27:48;;;;;;;8.57;7.60;;;8.20;44.80;;;;;;4995864;28;20520;-50
2022/10/01 01:30:17;;;;;;;10.93;9.80;;;8.30;41.10;;;;;;4992520;28;20574;-50
2022/10/01 01:32:50;;;;;;;10.67;9.57;;;8.30;43.00;;;;;;4992248;28;21051;-50
2022/10/01 01:35:22;;;;;;;8.37;7.57;;;8.20;49.10;;;;;;4989081;28;20576;-50
2022/10/01 01:37:53;;;;;;;21.47;9.00;;;8.30;47.50;;;;;;4990058;28;20576;-51
2022/10/01 01:40:21;;;;;;;13.10;9.13;;;8.30;46.00;;;;;;4992598;28;20546;-50
2022/10/01 01:42:50;;;;;;;7.93;7.13;;;8.30;47.50;;;;;;4988580;28;20543;-52
2022/10/01 01:45:22;;;;;;;11.33;8.27;;;8.30;48.40;;;;;;4986728;28;20575;-50
2022/10/01 01:47:50;;;;;;;14.87;7.80;;;8.30;51.10;;;;;;4994114;28;20962;-51
2022/10/01 01:50:17;;;;;;;11.17;9.87;;;8.30;52.00;;;;;;4987123;28;21077;-51
2022/10/01 01:52:44;;;;;;;19.67;10.33;;;8.30;55.30;;;;;;4995141;28;20548;-51
2022/10/01 01:55:11;;;;;;;13.07;8.90;;;8.30;54.40;;;;;;5001403;28;20464;-50
2022/10/01 01:57:40;;;;;;;8.60;7.70;;;8.30;53.70;;;;;;4990771;28;20565;-50
2022/10/01 02:00:09;;;;;;;10.93;7.10;;;8.30;54.80;;;;;;4986797;28;20547;-50
2022/10/01 02:02:40;;;;;;;8.90;8.03;;;8.30;54.90;;;;;;4992515;28;21012;-50
2022/10/01 02:05:09;;;;;;;11.10;8.53;;;8.30;55.50;;;;;;4993818;28;20507;-51
2022/10/01 02:08:03;;;;;;;10.27;7.97;;;8.30;57.70;;;;;;4990598;28;20480;-50
2022/10/01 02:10:42;;;;;;;10.83;7.90;;;8.30;56.00;;;;;;4988793;28;20571;-51
2022/10/01 02:13:21;;;;;;;10.27;8.73;;;8.30;59.60;;;;;;4989266;28;20559;-50
2022/10/01 02:15:58;;;;;;;9.80;8.70;;;8.30;57.50;;;;;;4993535;28;20467;-50
2022/10/01 02:18:33;;;;;;;10.90;8.63;;;8.30;59.50;;;;;;4994407;28;20550;-50
2022/10/01 02:21:09;;;;;;;9.77;8.17;;;8.30;60.10;;;;;;5000992;28;20534;-50
2022/10/01 02:23:41;;;;;;;8.97;7.40;;;8.30;58.30;;;;;;4990662;28;20475;-50
2022/10/01 02:26:14;;;;;;;8.50;7.70;;;8.30;59.60;;;;;;4991436;28;20538;-50
2022/10/01 02:28:42;;;;;;;8.20;7.40;;;8.30;58.60;;;;;;4994346;28;20575;-50
2022/10/01 02:31:10;;;;;;;8.97;7.00;;;8.40;58.50;;;;;;4997043;28;20559;-51
2022/10/01 02:33:40;;;;;;;8.43;7.17;;;8.40;59.70;;;;;;4990164;28;20551;-51
2022/10/01 02:36:09;;;;;;;8.03;7.33;;;8.30;58.50;;;;;;4989752;28;21234;-50
2022/10/01 02:38:40;;;;;;;8.80;7.83;;;8.30;61.20;;;;;;4988254;28;20480;-50
2022/10/01 02:41:10;;;;;;;8.70;7.30;;;8.30;61.40;;;;;;4990581;28;20904;-51
2022/10/01 02:43:40;;;;;;;8.33;7.53;;;8.30;62.50;;;;;;4987364;28;20471;-51
2022/10/01 02:46:14;;;;;;;9.03;7.60;;;8.30;57.20;;;;;;4996798;28;20550;-51
2022/10/01 02:48:43;;;;;;;13.70;9.40;;;8.30;58.10;;;;;;4999459;28;20492;-51
2022/10/01 02:51:24;;;;;;;11.50;8.00;;;8.20;59.60;;;;;;4992667;28;20547;-51
2022/10/01 02:53:57;;;;;;;10.27;6.50;;;8.30;58.90;;;;;;4992777;28;20559;-51
2022/10/01 02:59:07;;;;;;;9.03;7.20;;;8.30;57.50;;;;;;4994139;28;20452;-50
2022/10/01 03:01:34;;;;;;;8.30;7.50;;;8.30;58.20;;;;;;5001730;28;20468;-51
2022/10/01 03:04:02;;;;;;;10.23;7.90;;;8.40;58.20;;;;;;4993785;28;20499;-50
2022/10/01 03:06:29;;;;;;;7.87;6.93;;;8.30;60.80;;;;;;4996970;28;20502;-51
2022/10/01 03:08:58;;;;;;;9.63;7.20;;;8.40;58.80;;;;;;4996869;28;20562;-51
2022/10/01 03:11:25;;;;;;;10.00;7.90;;;8.30;61.70;;;;;;4993693;28;20468;-51
2022/10/01 03:13:52;;;;;;;9.57;7.70;;;8.30;62.20;;;;;;4996771;28;20511;-50
2022/10/01 03:16:19;;;;;;;8.67;7.53;;;8.30;61.50;;;;;;4998441;28;20474;-50
2022/10/01 03:18:45;;;;;;;7.63;6.93;;;8.30;61.70;;;;;;4999512;28;20599;-51
2022/10/01 03:21:13;;;;;;;7.33;6.63;;;8.30;61.40;;;;;;4995957;28;20547;-50
2022/10/01 03:23:40;;;;;;;11.57;6.83;;;8.30;60.20;;;;;;4990524;28;20547;-51
2022/10/01 03:26:06;;;;;;;8.63;7.77;;;8.30;60.80;;;;;;4994938;28;20536;-51
2022/10/01 03:28:33;;;;;;;7.30;6.60;;;8.30;64.70;;;;;;4995770;28;20571;-50
2022/10/01 03:31:06;;;;;;;7.03;6.33;;;8.30;64.10;;;;;;4995262;28;20781;-51
2022/10/01 03:33:33;;;;;;;7.57;6.87;;;8.30;68.30;;;;;;4998569;28;21765;-50
2022/10/01 03:36:00;;;;;;;9.37;7.40;;;8.40;67.20;;;;;;4991688;28;20553;-51
2022/10/01 03:38:28;;;;;;;8.53;7.10;;;8.40;67.90;;;;;;4997260;28;20512;-50
2022/10/01 03:40:55;;;;;;;9.17;6.93;;;8.30;72.00;;;;;;4996965;28;20467;-51
2022/10/01 03:43:21;;;;;;;9.50;6.70;;;8.40;76.40;;;;;;4993091;28;20602;-50
2022/10/01 03:45:48;;;;;;;7.90;7.10;;;8.30;77.80;;;;;;4987743;28;20560;-52
2022/10/01 03:48:14;;;;;;;9.27;6.60;;;8.30;81.30;;;;;;4992657;28;20579;-52
2022/10/01 03:50:41;;;;;;;7.17;6.57;;;8.30;80.00;;;;;;4999289;28;20494;-51
2022/10/01 03:53:08;;;;;;;8.33;6.27;;;8.40;84.50;;;;;;4998042;28;20572;-51
2022/10/01 03:55:35;;;;;;;8.07;7.27;;;8.40;85.70;;;;;;4996080;28;20879;-50
2022/10/01 03:58:02;;;;;;;9.30;6.70;;;8.40;88.80;;;;;;4996949;28;20571;-50
2022/10/01 04:00:28;;;;;;;10.90;6.70;;;8.40;95.30;;;;;;4988186;28;20467;-50
2022/10/01 04:02:55;;;;;;;9.07;6.20;;;8.40;92.20;;;;;;4993960;28;20471;-50
2022/10/01 04:05:24;;;;;;;8.20;7.27;;;8.40;92.00;;;;;;4995408;28;20551;-51
2022/10/01 04:07:50;;;;;;;9.23;6.73;;;8.40;93.70;;;;;;4996653;28;20488;-50
2022/10/01 04:10:17;;;;;;;7.90;7.10;;;8.40;94.90;;;;;;4993077;28;20607;-50
2022/10/01 04:12:45;;;;;;;7.67;6.90;;;8.40;92.20;;;;;;4992479;28;20547;-50
2022/10/01 04:15:11;;;;;;;8.70;6.97;;;8.40;94.80;;;;;;4990466;28;20556;-50
2022/10/01 04:17:38;;;;;;;8.53;6.90;;;8.40;94.70;;;;;;4992201;28;20535;-51
2022/10/01 04:20:05;;;;;;;8.20;7.33;;;8.40;95.60;;;;;;4993509;28;20560;-51
2022/10/01 04:22:38;;;;;;;7.27;6.77;;;8.40;95.00;;;;;;4996809;28;20560;-51
2022/10/01 04:25:06;;;;;;;9.07;7.27;;;8.40;93.60;;;;;;4991379;28;20567;-50
2022/10/01 04:27:32;;;;;;;7.80;7.10;;;8.50;94.10;;;;;;4994257;28;20954;-50
2022/10/01 04:30:00;;;;;;;9.10;7.73;;;8.50;93.10;;;;;;4989267;28;21019;-51
2022/10/01 04:32:27;;;;;;;12.20;8.33;;;8.50;92.60;;;;;;4987991;28;20531;-50
2022/10/01 04:34:53;;;;;;;11.60;8.10;;;8.50;95.20;;;;;;4989369;28;20547;-50
2022/10/01 04:37:20;;;;;;;8.80;7.90;;;8.50;93.60;;;;;;4992449;28;20911;-51
2022/10/01 04:39:47;;;;;;;7.80;6.90;;;8.50;92.50;;;;;;4993226;28;20539;-50
2022/10/01 04:42:14;;;;;;;10.67;7.10;;;8.50;93.80;;;;;;4993574;28;20465;-51
2022/10/01 04:44:41;;;;;;;8.33;6.90;;;8.50;93.30;;;;;;4993032;28;20460;-50
2022/10/01 04:47:08;;;;;;;7.83;7.03;;;8.50;92.40;;;;;;4996883;28;20586;-50
2022/10/01 04:49:35;;;;;;;15.27;7.03;;;8.50;92.20;;;;;;4992556;28;20583;-50
2022/10/01 04:52:03;;;;;;;8.73;7.20;;;8.50;89.50;;;;;;4991044;28;20468;-51
2022/10/01 04:54:29;;;;;;;9.90;7.93;;;8.50;89.90;;;;;;4993038;28;21165;-50
2022/10/01 04:56:57;;;;;;;17.10;14.13;;;8.50;91.10;;;;;;4993374;28;20571;-50
2022/10/01 04:59:24;;;;;;;59.43;42.90;;;8.50;88.20;;;;;;4990212;28;20452;-48
2022/10/01 05:01:51;;;;;;;34.33;28.40;;;8.50;87.30;;;;;;4995386;28;20873;-49
2022/10/01 05:04:18;;;;;;;15.63;11.00;;;8.60;87.10;;;;;;4998227;28;20897;-48
2022/10/01 05:06:45;;;;;;;10.07;8.00;;;8.60;88.80;;;;;;4992148;28;20540;-48
2022/10/01 05:09:11;;;;;;;8.40;7.60;;;8.60;89.00;;;;;;4992054;28;20511;-48
2022/10/01 05:11:39;;;;;;;20.47;18.50;;;8.70;92.50;;;;;;4993068;28;20571;-48
2022/10/01 05:14:05;;;;;;;11.53;10.43;;;8.70;95.30;;;;;;4991019;28;20472;-49
2022/10/01 05:16:32;;;;;;;9.00;6.77;;;8.70;95.00;;;;;;4990828;28;20547;-49
2022/10/01 05:18:58;;;;;;;7.40;6.70;;;8.70;96.10;;;;;;4998697;28;21042;-49
2022/10/01 05:21:26;;;;;;;6.90;6.13;;;8.70;96.90;;;;;;4993185;28;20483;-49
2022/10/01 05:23:53;;;;;;;9.27;6.53;;;8.80;99.90;;;;;;5001568;28;21036;-49
2022/10/01 05:26:19;;;;;;;7.70;6.43;;;8.70;99.90;;;;;;4989932;28;20544;-49
2022/10/01 05:28:46;;;;;;;7.23;5.80;;;8.80;99.90;;;;;;4987059;28;21085;-50
2022/10/01 05:31:13;;;;;;;7.50;6.57;;;8.80;99.90;;;;;;4991297;28;20758;-51
2022/10/01 05:33:40;;;;;;;9.83;6.70;;;8.80;99.90;;;;;;4994144;28;20476;-51
2022/10/01 05:36:07;;;;;;;9.33;6.57;;;8.80;99.90;;;;;;4993127;28;20870;-50
2022/10/01 05:38:36;;;;;;;9.03;6.07;;;8.80;99.90;;;;;;4992336;28;21052;-51
2022/10/01 05:41:02;;;;;;;6.13;5.53;;;8.90;99.90;;;;;;4990931;28;20599;-50
2022/10/01 05:43:30;;;;;;;7.93;6.20;;;8.90;99.90;;;;;;4989899;28;20484;-52
2022/10/01 05:46:00;;;;;;;11.30;6.73;;;8.90;99.90;;;;;;4990614;28;20468;-52
2022/10/01 05:48:26;;;;;;;6.43;5.83;;;8.90;99.90;;;;;;5029925;22;20638;-47
2022/10/01 05:50:53;;;;;;;6.60;5.80;;;9.00;99.90;;;;;;5026812;28;20585;-46
2022/10/01 05:53:21;;;;;;;6.33;5.80;;;9.00;99.90;;;;;;5027452;28;20482;-46
2022/10/01 05:55:49;;;;;;;9.00;6.70;;;9.00;99.90;;;;;;5027667;28;20483;-47
2022/10/01 05:58:16;;;;;;;7.60;6.20;;;9.00;99.90;;;;;;5023722;28;20684;-47
2022/10/01 06:00:43;;;;;;;6.40;5.80;;;9.00;99.90;;;;;;5027421;28;20895;-47
2022/10/01 06:03:12;;;;;;;8.23;6.23;;;9.10;99.90;;;;;;5030348;28;20493;-48
2022/10/01 06:05:38;;;;;;;6.63;5.93;;;9.10;99.90;;;;;;5026857;28;20485;-47
2022/10/01 06:08:06;;;;;;;6.43;5.83;;;9.20;99.90;;;;;;5027729;28;20569;-48
2022/10/01 06:10:33;;;;;;;5.73;5.23;;;9.20;99.90;;;;;;5027728;28;20493;-47
2022/10/01 06:13:04;;;;;;;6.57;5.97;;;9.20;99.90;;;;;;5022496;28;20458;-50
2022/10/01 06:15:34;;;;;;;7.03;6.27;;;9.30;99.90;;;;;;5024316;28;20976;-50
2022/10/01 06:18:02;;;;;;;17.43;5.53;;;9.40;99.90;;;;;;5029194;28;20587;-48
2022/10/01 06:20:29;;;;;;;6.90;6.20;;;9.40;99.90;;;;;;5028425;28;20454;-47
2022/10/01 06:22:57;;;;;;;6.27;5.63;;;9.40;99.90;;;;;;5030329;28;20505;-47
2022/10/01 06:25:24;;;;;;;8.33;6.00;;;9.40;99.90;;;;;;5027626;28;20549;-47
2022/10/01 06:27:56;;;;;;;6.20;5.53;;;9.40;99.90;;;;;;5032521;28;20565;-47
2022/10/01 06:30:25;;;;;;;8.93;5.80;;;9.40;99.90;;;;;;5027640;28;20490;-47
2022/10/01 06:32:52;;;;;;;7.30;6.60;;;9.40;99.90;;;;;;5033479;28;20554;-47
2022/10/01 06:35:19;;;;;;;9.67;5.33;;;9.40;99.90;;;;;;5030432;28;20558;-47
2022/10/01 06:37:46;;;;;;;7.40;6.23;;;9.40;99.90;;;;;;5031121;28;20561;-46
2022/10/01 06:40:12;;;;;;;5.67;5.27;;;9.50;99.90;;;;;;5031097;28;20921;-46
2022/10/01 06:42:39;;;;;;;9.03;6.63;;;9.40;99.90;;;;;;5027460;28;21022;-47
2022/10/01 06:45:06;;;;;;;6.97;6.03;;;9.50;99.90;;;;;;5033212;28;20550;-47
2022/10/01 06:47:34;;;;;;;8.40;5.40;;;9.50;99.90;;;;;;5032899;28;20862;-47
2022/10/01 06:50:01;;;;;;;9.37;6.30;;;9.50;99.90;;;;;;5032874;28;20482;-47
2022/10/01 06:55:11;;;;;;;11.47;5.37;;;9.60;99.90;;;;;;5026851;28;20446;-47
2022/10/01 06:57:38;;;;;;;6.60;4.77;;;9.60;99.90;;;;;;5028873;28;20565;-50
2022/10/01 07:00:06;;;;;;;9.73;5.40;;;9.70;99.90;;;;;;5030472;28;20551;-49
2022/10/01 07:02:34;;;;;;;6.17;5.60;;;9.70;99.90;;;;;;5027815;28;20466;-50
2022/10/01 07:05:00;;;;;;;6.43;5.50;;;9.70;99.90;;;;;;5028361;28;20498;-50
2022/10/01 07:07:29;;;;;;;7.50;5.80;;;9.70;99.90;;;;;;5028745;28;21024;-49
2022/10/01 07:09:56;;;;;;;5.97;5.50;;;9.70;99.90;;;;;;5025412;28;20455;-50
2022/10/01 07:12:23;;;;;;;5.43;4.93;;;9.70;99.90;;;;;;5027716;28;21047;-51
2022/10/01 07:14:49;;;;;;;5.67;5.17;;;9.70;99.90;;;;;;5026491;28;21189;-49
2022/10/01 07:17:16;;;;;;;6.80;4.87;;;9.70;99.90;;;;;;5024394;28;20566;-51
2022/10/01 07:19:44;;;;;;;6.27;5.60;;;9.70;99.90;;;;;;5025534;28;20541;-49
2022/10/01 07:22:10;;;;;;;5.13;4.73;;;9.80;99.90;;;;;;5027844;28;20493;-50
2022/10/01 07:24:37;;;;;;;5.77;5.27;;;9.80;99.90;;;;;;5027993;28;20509;-50
2022/10/01 07:27:04;;;;;;;5.27;4.80;;;9.90;99.90;;;;;;5020453;28;20537;-50
2022/10/01 07:29:31;;;;;;;6.40;5.47;;;9.90;99.90;;;;;;5021466;28;20545;-48
2022/10/01 07:31:58;;;;;;;6.30;5.47;;;9.90;99.90;;;;;;5024250;28;20956;-47
2022/10/01 07:34:25;;;;;;;6.47;5.33;;;10.00;99.90;;;;;;5029516;28;20462;-47
2022/10/01 07:36:55;;;;;;;7.70;5.83;;;10.00;99.90;;;;;;5027486;28;20900;-48
2022/10/01 07:39:21;;;;;;;8.80;6.07;;;10.00;99.90;;;;;;5027541;28;20490;-47
2022/10/01 07:41:50;;;;;;;5.77;5.27;;;10.10;99.90;;;;;;5028351;28;20542;-47
2022/10/01 07:44:16;;;;;;;5.60;5.10;;;10.10;99.90;;;;;;5027753;28;20495;-47
2022/10/01 07:46:43;;;;;;;5.97;5.20;;;10.10;99.90;;;;;;5028980;28;20506;-47
2022/10/01 07:49:10;;;;;;;8.23;5.07;;;10.30;99.90;;;;;;4991723;28;992105;-47
2022/10/01 07:51:37;;;;;;;5.87;5.37;;;10.30;99.90;;;;;;5029172;28;20582;-46
2022/10/01 07:54:05;;;;;;;5.23;4.83;;;10.40;99.90;;;;;;5029223;28;20562;-47
2022/10/01 07:56:31;;;;;;;6.33;5.60;;;10.40;99.90;;;;;;5029724;28;20554;-48
2022/10/01 07:58:59;;;;;;;6.43;5.50;;;10.50;99.90;;;;;;5031264;28;20521;-48
2022/10/01 08:01:25;;;;;;;5.87;5.37;;;10.50;99.90;;;;;;5028437;28;20663;-47
2022/10/01 08:03:53;;;;;;;7.00;5.53;;;10.60;99.90;;;;;;5032532;28;20547;-47
2022/10/01 08:06:22;;;;;;;6.90;5.70;;;10.60;99.90;;;;;;5031718;28;20511;-47
2022/10/01 08:08:48;;;;;;;7.70;5.87;;;10.70;99.90;;;;;;5032754;28;20497;-47
2022/10/01 08:11:17;;;;;;;6.50;5.87;;;10.70;99.90;;;;;;5023234;28;20577;-47
2022/10/01 08:13:44;;;;;;;8.30;6.10;;;10.70;99.90;;;;;;5032868;28;20466;-47
2022/10/01 08:16:11;;;;;;;6.93;6.00;;;10.80;99.90;;;;;;5030672;28;20466;-47
2022/10/01 08:18:39;;;;;;;5.30;4.90;;;10.90;99.90;;;;;;5028339;28;20510;-47
2022/10/01 08:21:06;;;;;;;6.00;5.40;;;10.90;99.90;;;;;;5028248;28;20546;-49
2022/10/01 08:23:33;;;;;;;8.70;5.57;;;11.00;99.90;;;;;;5021767;28;20554;-50
2022/10/01 08:26:01;;;;;;;7.73;5.87;;;11.10;99.90;;;;;;5026213;28;20562;-50
2022/10/01 08:28:29;;;;;;;5.87;5.30;;;11.20;99.90;;;;;;5029124;28;20478;-50
2022/10/01 08:30:56;;;;;;;8.70;6.13;;;11.20;99.90;;;;;;5027107;28;20577;-50
2022/10/01 08:33:23;;;;;;;6.77;5.80;;;11.20;99.90;;;;;;5027488;28;20459;-50
2022/10/01 08:35:50;;;;;;;5.77;5.23;;;11.30;99.90;;;;;;5027450;28;20558;-50
2022/10/01 08:38:18;;;;;;;7.60;5.47;;;11.30;99.90;;;;;;5023654;28;20485;-51
2022/10/01 08:40:47;;;;;;;6.90;5.30;;;11.40;99.90;;;;;;5024953;28;20877;-50
2022/10/01 08:43:31;;;;;;;6.40;4.67;;;11.40;99.90;;;;;;5026371;28;20455;-49
2022/10/01 08:46:02;;;;;;;9.30;5.40;;;11.50;99.90;;;;;;5024476;28;21404;-50
2022/10/01 08:48:39;;;;;;;5.37;4.93;;;11.50;99.90;;;;;;5025343;28;20491;-49
2022/10/01 08:51:10;;;;;;;4.57;4.27;;;11.60;99.90;;;;;;5026830;28;20513;-50
2022/10/01 08:53:40;;;;;;;5.80;4.57;;;11.70;99.90;;;;;;5023370;28;20502;-49
2022/10/01 08:56:18;;;;;;;5.23;4.70;;;11.70;99.90;;;;;;5018822;28;20489;-49
2022/10/01 08:58:50;;;;;;;5.30;4.80;;;11.70;99.90;;;;;;5021839;28;21007;-50
2022/10/01 09:01:21;;;;;;;5.50;5.00;;;11.80;99.90;;;;;;5022752;28;20652;-49
2022/10/01 09:03:48;;;;;;;8.80;4.60;;;11.80;99.90;;;;;;5024328;28;20491;-49
2022/10/01 09:06:20;;;;;;;10.30;4.57;;;11.80;99.90;;;;;;5030616;28;20530;-49
2022/10/01 09:09:07;;;;;;;8.97;5.33;;;11.80;99.90;;;;;;5022212;28;20566;-50
2022/10/01 09:11:48;;;;;;;4.57;4.13;;;11.90;99.90;;;;;;5029816;28;20525;-50
2022/10/01 09:14:55;;;;;;;4.70;4.30;;;11.90;99.90;;;;;;5026103;28;20998;-50
2022/10/01 09:17:34;;;;;;;4.63;4.23;;;12.00;99.90;;;;;;5032119;28;20537;-50
2022/10/01 09:20:11;;;;;;;8.17;4.57;;;12.00;99.90;;;;;;5024431;28;20898;-51
2022/10/01 09:22:40;;;;;;;3.73;3.50;;;12.10;99.90;;;;;;5023995;28;20565;-50
2022/10/01 09:25:13;;;;;;;5.90;4.37;;;12.30;99.90;;;;;;5026343;28;20462;-49
2022/10/01 09:27:40;;;;;;;4.03;3.63;;;12.30;99.90;;;;;;5023998;28;20497;-50
2022/10/01 09:30:13;;;;;;;4.20;3.50;;;12.40;99.90;;;;;;5029814;28;20550;-50
2022/10/01 09:32:44;;;;;;;3.67;3.37;;;12.40;99.90;;;;;;5023532;28;20566;-50
2022/10/01 09:35:24;;;;;;;6.37;4.33;;;12.40;99.90;;;;;;5031898;28;20534;-50
2022/10/01 09:37:56;;;;;;;4.33;4.03;;;12.40;99.90;;;;;;5030980;28;20501;-50
2022/10/01 09:40:33;;;;;;;5.70;4.70;;;12.40;99.90;;;;;;5031912;28;20533;-49
2022/10/01 09:43:00;;;;;;;3.70;3.40;;;12.40;99.90;;;;;;5030594;28;20474;-51
2022/10/01 09:45:28;;;;;;;5.30;3.60;;;12.40;99.90;;;;;;5032175;28;20451;-49
2022/10/01 09:48:03;;;;;;;6.60;3.83;;;12.30;99.90;;;;;;5031529;28;20570;-49
2022/10/01 09:50:38;;;;;;;5.80;3.97;;;12.30;99.90;;;;;;5031024;28;20462;-50
2022/10/01 09:53:10;;;;;;;5.10;3.63;;;12.30;99.90;;;;;;5031358;28;20911;-50
2022/10/01 09:55:40;;;;;;;4.13;3.40;;;12.20;99.90;;;;;;5027746;28;20577;-49
2022/10/01 09:58:10;;;;;;;4.23;3.93;;;12.20;99.90;;;;;;5029694;28;20832;-51
2022/10/01 10:00:40;;;;;;;4.77;3.93;;;12.20;99.90;;;;;;5029429;28;20549;-50
2022/10/01 10:03:07;;;;;;;3.83;3.47;;;12.10;99.90;;;;;;5024621;28;20447;-47
2022/10/01 10:05:41;;;;;;;3.83;3.50;;;12.10;99.90;;;;;;5029649;28;20549;-47
2022/10/01 10:08:13;;;;;;;4.17;3.77;;;12.00;99.90;;;;;;5018459;28;20539;-47
2022/10/01 10:10:49;;;;;;;10.07;5.10;;;11.90;99.90;;;;;;5029567;28;20506;-47
2022/10/01 10:13:23;;;;;;;3.87;3.53;;;11.80;99.90;;;;;;5031467;28;20537;-47
2022/10/01 10:15:55;;;;;;;4.63;4.33;;;11.70;99.90;;;;;;5030308;28;20470;-47
2022/10/01 10:18:28;;;;;;;4.20;3.47;;;11.60;99.90;;;;;;5031369;28;20470;-46
2022/10/01 10:20:56;;;;;;;3.30;3.10;;;11.50;99.90;;;;;;5030438;28;21024;-47
2022/10/01 10:23:24;;;;;;;3.97;3.27;;;11.40;99.90;;;;;;5030707;28;20522;-48
2022/10/01 10:25:55;;;;;;;3.33;3.10;;;11.30;94.30;;;;;;5031502;28;20447;-48
2022/10/01 10:28:23;;;;;;;6.67;3.10;;;11.30;83.60;;;;;;5031462;28;20501;-47
2022/10/01 10:30:53;;;;;;;20.33;3.20;;;11.20;70.90;;;;;;5029002;28;20491;-46
2022/10/01 10:33:21;;;;;;;3.40;3.10;;;11.20;51.00;;;;;;5031454;28;20478;-47
2022/10/01 10:35:57;;;;;;;3.20;2.90;;;11.10;53.80;;;;;;5030715;28;20542;-47
2022/10/01 10:38:29;;;;;;;3.20;3.00;;;11.00;45.10;;;;;;5031454;28;20478;-46
2022/10/01 10:40:57;;;;;;;2.70;2.50;;;11.00;24.70;;;;;;5031190;28;20533;-46
2022/10/01 10:43:29;;;;;;;4.00;3.70;;;10.90;26.60;;;;;;5031256;28;20447;-46
2022/10/01 10:45:58;;;;;;;3.93;3.53;;;10.80;79.60;;;;;;5030278;28;20517;-47
2022/10/01 10:48:30;;;;;;;4.07;3.77;;;10.80;99.90;;;;;;5031172;28;20475;-46
2022/10/01 10:51:00;;;;;;;3.37;3.03;;;10.80;99.90;;;;;;5029576;28;20459;-48
2022/10/01 10:53:30;;;;;;;5.20;3.77;;;10.70;99.90;;;;;;5031324;28;20937;-47
2022/10/01 10:55:59;;;;;;;3.50;3.20;;;10.70;99.90;;;;;;5025623;28;20455;-47
2022/10/01 10:58:28;;;;;;;4.37;4.07;;;10.70;99.90;;;;;;5011803;28;20533;-46
2022/10/01 11:00:58;;;;;;;4.30;4.00;;;10.60;99.90;;;;;;5021355;28;20454;-47
2022/10/01 11:03:28;;;;;;;4.00;3.70;;;10.60;99.90;;;;;;5029999;28;20497;-47
2022/10/01 11:05:59;;;;;;;8.80;4.60;;;10.60;99.90;;;;;;5031190;28;20517;-47
2022/10/01 11:08:27;;;;;;;4.60;3.63;;;10.60;99.90;;;;;;5032485;28;20490;-47
2022/10/01 11:11:06;;;;;;;4.07;3.73;;;10.60;99.90;;;;;;5034720;28;20462;-47
2022/10/01 11:13:58;;;;;;;4.33;3.70;;;10.50;99.90;;;;;;5021984;28;20497;-47
2022/10/01 11:16:47;;;;;;;4.37;4.07;;;10.50;99.90;;;;;;5034789;28;20450;-47
2022/10/01 11:19:29;;;;;;;3.60;3.30;;;10.50;99.90;;;;;;5030927;28;21075;-47
2022/10/01 11:22:09;;;;;;;4.73;4.33;;;10.50;99.90;;;;;;5017890;28;21032;-47
2022/10/01 11:24:54;;;;;;;5.40;4.10;;;10.50;99.90;;;;;;5014891;28;20476;-47
2022/10/01 11:27:27;;;;;;;3.70;3.50;;;10.50;99.90;;;;;;5019672;28;20886;-47
2022/10/01 11:30:01;;;;;;;4.73;4.30;;;10.50;99.90;;;;;;5033618;28;20819;-48
2022/10/01 11:32:37;;;;;;;4.53;4.13;;;10.50;99.90;;;;;;5034359;28;20510;-46
2022/10/01 11:35:18;;;;;;;4.43;4.03;;;10.60;99.90;;;;;;5032714;28;20561;-46
2022/10/01 11:38:00;;;;;;;5.40;4.47;;;10.60;99.90;;;;;;5026597;28;20474;-47
2022/10/01 11:40:32;;;;;;;4.03;3.80;;;10.60;99.90;;;;;;5033612;28;20474;-47
2022/10/01 11:43:05;;;;;;;4.13;3.83;;;10.60;99.90;;;;;;5027939;28;20443;-47
2022/10/01 11:45:34;;;;;;;5.60;4.90;;;10.60;99.90;;;;;;5034082;28;20521;-48
2022/10/01 11:50:35;;;;;;;6.83;4.50;;;10.60;99.90;;;;;;5028546;28;20808;-49
2022/10/01 11:53:07;;;;;;;5.13;4.63;;;10.60;99.90;;;;;;5031656;28;20578;-50
2022/10/01 11:58:51;;;;;;;4.20;3.90;;;10.60;99.90;;;;;;4985838;28;20901;-50
2022/10/01 12:01:26;;;;;;;4.30;4.00;;;10.60;99.90;;;;;;5033553;28;20446;-50
2022/10/01 12:04:14;;;;;;;5.57;3.67;;;10.70;99.90;;;;;;5021845;28;20456;-49
2022/10/01 12:06:51;;;;;;;6.90;4.73;;;10.60;99.90;;;;;;5019670;28;21010;-49
2022/10/01 12:09:24;;;;;;;8.47;3.60;;;10.70;99.90;;;;;;5026839;28;20486;-50
2022/10/01 12:12:00;;;;;;;5.03;4.13;;;10.70;99.90;;;;;;5029394;28;21082;-50
2022/10/01 12:14:32;;;;;;;4.10;3.70;;;10.70;99.90;;;;;;5031520;28;20481;-49
2022/10/01 12:17:10;;;;;;;4.63;4.13;;;10.70;99.90;;;;;;5033423;28;20534;-49
2022/10/01 12:19:40;;;;;;;4.20;3.60;;;10.70;99.90;;;;;;5017823;28;20565;-50
2022/10/01 12:22:14;;;;;;;3.63;3.43;;;10.70;99.90;;;;;;5031266;28;20530;-49
2022/10/01 12:24:42;;;;;;;4.63;4.00;;;10.70;99.90;;;;;;5021387;28;20514;-49
2022/10/01 12:27:29;;;;;;;3.53;3.23;;;10.70;99.90;;;;;;5029820;28;20462;-49
2022/10/01 12:30:01;;;;;;;3.73;3.40;;;10.60;97.60;;;;;;5026604;28;21026;-49
2022/10/01 12:32:36;;;;;;;3.70;3.40;;;10.70;94.20;;;;;;5027926;28;20862;-49
2022/10/01 12:35:16;;;;;;;3.03;2.83;;;10.60;92.70;;;;;;5029232;28;20505;-49
2022/10/01 12:37:57;;;;;;;4.53;4.13;;;10.60;87.50;;;;;;5023089;28;20577;-49
2022/10/01 12:40:32;;;;;;;3.47;3.27;;;10.60;85.30;;;;;;5024141;28;20473;-49
2022/10/01 12:43:19;;;;;;;3.77;3.10;;;10.60;81.60;;;;;;5032187;28;20541;-49
2022/10/01 12:45:52;;;;;;;3.33;2.47;;;10.60;76.50;;;;;;5025199;28;20546;-49
2022/10/01 12:48:24;;;;;;;3.07;2.87;;;10.60;71.00;;;;;;5021160;28;20571;-49
2022/10/01 12:51:02;;;;;;;3.23;3.03;;;10.60;67.60;;;;;;5019476;28;20469;-49
2022/10/01 12:53:39;;;;;;;2.90;2.70;;;10.50;63.40;;;;;;5014662;28;20578;-49
2022/10/01 12:56:15;;;;;;;3.50;3.13;;;10.60;58.50;;;;;;5013781;28;20550;-49
2022/10/01 12:58:55;;;;;;;3.30;3.10;;;10.60;56.10;;;;;;5015123;28;20463;-49
2022/10/01 13:01:43;;;;;;;3.07;2.90;;;10.60;53.40;;;;;;5022395;28;20489;-48
2022/10/01 13:04:54;;;;;;;3.60;3.30;;;10.60;50.20;;;;;;5021857;28;21591;-49
2022/10/01 13:07:45;;;;;;;6.30;3.27;;;10.60;47.50;;;;;;5028412;28;20466;-49
2022/10/01 13:10:24;;;;;;;2.90;2.70;;;10.60;45.00;;;;;;5031539;28;20485;-49
2022/10/01 13:13:00;;;;;;;3.17;2.87;;;10.70;42.40;;;;;;5032160;28;20577;-49
2022/10/01 13:15:31;;;;;;;2.90;2.70;;;10.70;40.90;;;;;;5022645;28;20503;-50
2022/10/01 13:18:06;;;;;;;5.50;2.83;;;10.70;38.20;;;;;;5025716;28;20476;-49